Time;durP1;ratioP1;P1;durP2;ratioP2;P2;SDS_P1;SDS_P2;PMS_P1;PMS_P2;Temp;Humidity;BMP_temperature;BMP_pressure;BME280_temperature;BME280_humidity;BME280_pressure;Samples;Min_cycle;Max_cycle;Signal;HPM_P1;HPM_P2
2023/03/11 00:01:05;;;;;;;;;;;;;;;19.78;33.93;100708.88;7261158;19;153290;-54
2023/03/11 00:03:32;;;;;;;;;;;;;;;19.80;34.03;100720.63;7259029;19;153187;-54
2023/03/11 00:06:00;;;;;;;;;;;;;;;19.82;34.10;100729.56;7257735;19;153736;-53
2023/03/11 00:08:27;;;;;;;;;;;;;;;19.82;33.82;100743.56;7256536;19;153496;-53
2023/03/11 00:10:55;;;;;;;;;;;;;;;19.86;34.35;100743.78;7258170;19;154177;-54
2023/03/11 00:13:21;;;;;;;;;;;;;;;19.88;34.07;100756.38;7266163;19;154004;-54
2023/03/11 00:15:49;;;;;;;;;;;;;;;19.91;34.47;100750.13;7260883;19;154234;-54
2023/03/11 00:18:17;;;;;;;;;;;;;;;19.95;34.48;100753.13;7257371;19;153514;-53
2023/03/11 00:20:45;;;;;;;;;;;;;;;19.96;34.08;100758.44;7261179;19;153773;-54
2023/03/11 00:23:13;;;;;;;;;;;;;;;19.98;34.09;100760.94;7256972;19;153306;-53
2023/03/11 00:25:41;;;;;;;;;;;;;;;19.93;33.76;100763.84;7253396;19;153196;-53
2023/03/11 00:28:09;;;;;;;;;;;;;;;19.92;34.14;100768.63;7259387;19;153373;-53
2023/03/11 00:30:37;;;;;;;;;;;;;;;19.92;34.07;100753.78;7258625;19;154050;-55
2023/03/11 00:33:03;;;;;;;;;;;;;;;19.93;34.01;100756.28;7258236;19;154293;-53
2023/03/11 00:35:31;;;;;;;;;;;;;;;19.94;33.85;100755.09;7263502;19;153398;-54
2023/03/11 00:38:00;;;;;;;;;;;;;;;19.97;34.05;100748.91;7257863;19;158329;-55
2023/03/11 00:40:28;;;;;;;;;;;;;;;20.02;33.83;100739.56;7258152;19;153863;-54
2023/03/11 00:42:55;;;;;;;;;;;;;;;20.02;33.74;100731.16;7258922;19;153793;-55
2023/03/11 00:45:22;;;;;;;;;;;;;;;20.06;33.85;100728.53;7255821;19;154231;-54
2023/03/11 00:47:49;;;;;;;;;;;;;;;20.05;33.79;100726.88;7257042;19;152604;-54
2023/03/11 00:50:18;;;;;;;;;;;;;;;20.03;34.07;100730.00;7257774;19;152554;-54
2023/03/11 00:52:46;;;;;;;;;;;;;;;20.03;33.72;100734.78;7254678;19;153193;-54
2023/03/11 00:55:14;;;;;;;;;;;;;;;20.02;34.22;100730.31;7253453;19;154105;-54
2023/03/11 00:57:41;;;;;;;;;;;;;;;19.98;34.24;100735.72;7265613;19;153196;-56
2023/03/11 01:00:11;;;;;;;;;;;;;;;19.96;34.35;100733.22;7258593;19;153617;-55
2023/03/11 01:02:38;;;;;;;;;;;;;;;19.94;34.44;100735.47;7256149;19;154445;-54
2023/03/11 01:05:05;;;;;;;;;;;;;;;19.94;34.54;100726.25;7257211;19;154095;-54
2023/03/11 01:07:32;;;;;;;;;;;;;;;19.93;34.15;100731.03;7256912;19;152740;-55
2023/03/11 01:09:59;;;;;;;;;;;;;;;19.92;34.28;100726.56;7255025;19;153807;-54
2023/03/11 01:12:26;;;;;;;;;;;;;;;19.90;34.50;100737.25;7255700;19;154123;-54
2023/03/11 01:14:53;;;;;;;;;;;;;;;19.88;34.51;100735.91;7259271;19;154129;-54
2023/03/11 01:17:21;;;;;;;;;;;;;;;19.87;34.81;100740.69;7257028;19;154462;-54
2023/03/11 01:19:48;;;;;;;;;;;;;;;19.85;35.00;100736.53;7262747;19;153168;-54
2023/03/11 01:22:15;;;;;;;;;;;;;;;19.82;35.11;100759.56;7256347;19;152444;-55
2023/03/11 01:24:41;;;;;;;;;;;;;;;19.79;34.95;100765.78;7252645;19;154164;-55
2023/03/11 01:27:08;;;;;;;;;;;;;;;19.74;35.30;100755.50;7256815;19;153976;-55
2023/03/11 01:29:35;;;;;;;;;;;;;;;19.70;35.10;100756.41;7259718;19;153408;-55
2023/03/11 01:32:02;;;;;;;;;;;;;;;19.67;35.32;100759.84;7254481;19;154041;-55
2023/03/11 01:34:29;;;;;;;;;;;;;;;19.62;35.55;100757.97;7255453;19;151817;-55
2023/03/11 01:36:55;;;;;;;;;;;;;;;19.59;35.54;100744.53;7253612;19;153870;-55
2023/03/11 01:39:22;;;;;;;;;;;;;;;19.59;35.43;100749.31;7253791;19;153497;-54
2023/03/11 01:41:51;;;;;;;;;;;;;;;19.52;35.38;100733.75;7262743;19;154158;-55
2023/03/11 01:44:18;;;;;;;;;;;;;;;19.52;35.70;100735.72;7254490;19;153853;-54
2023/03/11 01:46:48;;;;;;;;;;;;;;;19.48;35.55;100737.47;7255599;19;153102;-55
2023/03/11 01:49:15;;;;;;;;;;;;;;;19.46;35.57;100731.34;7254997;19;153629;-54
2023/03/11 01:51:44;;;;;;;;;;;;;;;19.42;36.04;100730.25;7254760;19;154004;-55
2023/03/11 01:54:13;;;;;;;;;;;;;;;19.40;35.96;100727.75;7254075;19;153848;-54
2023/03/11 01:56:41;;;;;;;;;;;;;;;19.36;36.05;100729.50;7257154;19;154216;-54
2023/03/11 01:59:10;;;;;;;;;;;;;;;19.35;36.10;100724.22;7254712;19;153478;-54
2023/03/11 02:01:42;;;;;;;;;;;;;;;19.32;35.80;100724.81;7263112;19;152921;-54
2023/03/11 02:04:09;;;;;;;;;;;;;;;19.30;36.02;100727.09;7253240;19;153451;-54
2023/03/11 02:06:36;;;;;;;;;;;;;;;19.28;35.90;100733.00;7254838;19;153940;-55
2023/03/11 02:09:03;;;;;;;;;;;;;;;19.23;36.31;100713.47;7252359;19;153631;-54
2023/03/11 02:11:30;;;;;;;;;;;;;;;19.22;36.34;100720.22;7257506;19;153707;-54
2023/03/11 02:13:59;;;;;;;;;;;;;;;19.20;36.15;100716.91;7254946;19;153331;-55
2023/03/11 02:16:26;;;;;;;;;;;;;;;19.17;36.21;100725.88;7256377;19;153643;-55
2023/03/11 02:18:53;;;;;;;;;;;;;;;19.16;36.08;100715.00;7254943;19;153563;-54
2023/03/11 02:21:22;;;;;;;;;;;;;;;19.12;36.22;100713.97;7256747;19;153543;-54
2023/03/11 02:23:55;;;;;;;;;;;;;;;19.09;36.27;100709.78;7260062;19;154067;-55
2023/03/11 02:26:24;;;;;;;;;;;;;;;19.07;36.45;100706.47;7256251;19;154000;-55
2023/03/11 02:28:52;;;;;;;;;;;;;;;19.04;36.19;100707.91;7254592;19;153269;-54
2023/03/11 02:31:20;;;;;;;;;;;;;;;19.02;36.40;100710.19;7254470;19;154034;-55
2023/03/11 02:33:48;;;;;;;;;;;;;;;19.01;36.27;100708.50;7250683;19;153548;-54
2023/03/11 02:36:18;;;;;;;;;;;;;;;18.99;36.68;100715.53;7257327;19;153466;-54
2023/03/11 02:38:45;;;;;;;;;;;;;;;18.95;36.43;100706.09;7251722;19;154922;-54
2023/03/11 02:41:12;;;;;;;;;;;;;;;18.92;36.46;100710.34;7256262;19;153217;-54
2023/03/11 02:43:42;;;;;;;;;;;;;;;18.90;36.50;100704.19;7255064;19;154534;-54
2023/03/11 02:46:10;;;;;;;;;;;;;;;18.88;36.91;100700.88;7261700;19;155112;-54
2023/03/11 02:48:37;;;;;;;;;;;;;;;18.84;36.87;100699.84;7253974;19;153832;-54
2023/03/11 02:51:05;;;;;;;;;;;;;;;18.83;36.77;100700.97;7253412;19;155398;-55
2023/03/11 02:53:35;;;;;;;;;;;;;;;18.81;37.15;100685.59;7253012;19;152299;-54
2023/03/11 02:56:03;;;;;;;;;;;;;;;18.78;37.15;100694.59;7259588;19;152961;-54
2023/03/11 02:58:30;;;;;;;;;;;;;;;18.76;36.99;100697.69;7259827;19;155686;-54
2023/03/11 03:00:57;;;;;;;;;;;;;;;18.74;37.19;100702.78;7261756;19;152925;-55
2023/03/11 03:03:24;;;;;;;;;;;;;;;18.74;37.19;100699.13;7260348;19;153189;-54
2023/03/11 03:05:51;;;;;;;;;;;;;;;18.71;37.25;100688.56;7259954;19;152831;-54
2023/03/11 03:08:18;;;;;;;;;;;;;;;18.69;37.13;100697.25;7266387;19;154175;-54
2023/03/11 03:10:45;;;;;;;;;;;;;;;18.67;37.32;100696.72;7261250;19;155028;-54
2023/03/11 03:13:13;;;;;;;;;;;;;;;18.64;37.48;100694.53;7255774;19;153391;-55
2023/03/11 03:15:40;;;;;;;;;;;;;;;18.62;37.31;100689.22;7263347;19;157133;-54
2023/03/11 03:18:07;;;;;;;;;;;;;;;18.60;37.31;100690.66;7258516;19;153712;-54
2023/03/11 03:20:33;;;;;;;;;;;;;;;18.59;37.54;100701.03;7262008;19;153708;-54
2023/03/11 03:23:00;;;;;;;;;;;;;;;18.55;37.36;100705.56;7261721;19;155526;-54
2023/03/11 03:25:28;;;;;;;;;;;;;;;18.54;37.31;100691.88;7259423;19;154423;-55
2023/03/11 03:27:55;;;;;;;;;;;;;;;18.53;37.80;100687.44;7259977;19;153476;-54
2023/03/11 03:30:22;;;;;;;;;;;;;;;18.51;37.84;100690.47;7266610;19;152993;-55
2023/03/11 03:32:49;;;;;;;;;;;;;;;18.49;37.76;100684.34;7260414;19;153446;-55
2023/03/11 03:35:16;;;;;;;;;;;;;;;18.48;37.78;100677.09;7260087;19;153326;-55
2023/03/11 03:37:43;;;;;;;;;;;;;;;18.46;37.95;100670.97;7258834;19;153487;-54
2023/03/11 03:40:10;;;;;;;;;;;;;;;18.44;37.64;100667.63;7257772;19;152465;-55
2023/03/11 03:42:37;;;;;;;;;;;;;;;18.43;37.91;100670.75;7261078;19;154803;-55
2023/03/11 03:45:05;;;;;;;;;;;;;;;18.42;37.89;100663.47;7258420;19;154097;-55
2023/03/11 03:47:33;;;;;;;;;;;;;;;18.39;38.07;100656.53;7259574;19;153162;-55
2023/03/11 03:50:01;;;;;;;;;;;;;;;18.38;37.96;100654.03;7259365;19;153982;-55
2023/03/11 03:52:28;;;;;;;;;;;;;;;18.36;38.13;100657.13;7267599;19;153402;-55
2023/03/11 03:54:55;;;;;;;;;;;;;;;18.34;37.93;100661.38;7257689;19;154068;-55
2023/03/11 03:57:22;;;;;;;;;;;;;;;18.32;37.95;100658.84;7257782;19;153189;-55
2023/03/11 03:59:49;;;;;;;;;;;;;;;18.32;37.87;100666.41;7260879;19;153971;-55
2023/03/11 04:02:16;;;;;;;;;;;;;;;18.30;37.89;100658.34;7257834;19;152454;-55
2023/03/11 04:04:43;;;;;;;;;;;;;;;18.29;38.34;100664.22;7257924;19;153798;-55
2023/03/11 04:07:10;;;;;;;;;;;;;;;18.27;38.11;100664.50;7259347;19;154435;-54
2023/03/11 04:09:39;;;;;;;;;;;;;;;18.25;38.31;100665.97;7257285;19;154375;-55
2023/03/11 04:12:06;;;;;;;;;;;;;;;18.22;38.49;100667.38;7264396;19;154553;-55
2023/03/11 04:14:33;;;;;;;;;;;;;;;18.20;38.17;100664.91;7257486;19;152805;-56
2023/03/11 04:17:00;;;;;;;;;;;;;;;18.18;38.31;100672.75;7256732;19;154744;-55
2023/03/11 04:19:27;;;;;;;;;;;;;;;18.16;38.50;100682.56;7260716;19;153688;-54
2023/03/11 04:21:54;;;;;;;;;;;;;;;18.17;38.58;100692.59;7259328;19;152006;-55
2023/03/11 04:24:21;;;;;;;;;;;;;;;18.15;38.50;100701.31;7254822;19;154357;-54
2023/03/11 04:26:48;;;;;;;;;;;;;;;18.16;38.46;100690.97;7258304;19;152288;-55
2023/03/11 04:29:15;;;;;;;;;;;;;;;18.12;38.35;100685.13;7258103;19;154477;-54
2023/03/11 04:31:42;;;;;;;;;;;;;;;18.10;38.71;100695.78;7255257;19;154277;-54
2023/03/11 04:34:09;;;;;;;;;;;;;;;18.09;38.38;100698.84;7262951;19;152437;-54
2023/03/11 04:36:36;;;;;;;;;;;;;;;18.09;38.49;100708.09;7255998;19;154790;-54
2023/03/11 04:39:03;;;;;;;;;;;;;;;18.07;38.76;100709.53;7254599;19;153217;-55
2023/03/11 04:41:30;;;;;;;;;;;;;;;18.03;38.71;100709.28;7258881;19;153131;-55
2023/03/11 04:43:58;;;;;;;;;;;;;;;18.03;38.34;100717.69;7255895;19;153402;-54
2023/03/11 04:46:24;;;;;;;;;;;;;;;18.04;38.64;100722.13;7259023;19;153249;-55
2023/03/11 04:48:51;;;;;;;;;;;;;;;18.01;38.60;100717.13;7258243;19;153589;-55
2023/03/11 04:51:18;;;;;;;;;;;;;;;18.00;38.72;100718.25;7257119;19;153848;-54
2023/03/11 04:53:45;;;;;;;;;;;;;;;18.00;38.99;100715.47;7252599;19;151943;-54
2023/03/11 04:56:12;;;;;;;;;;;;;;;17.99;38.91;100724.16;7263041;19;154200;-54
2023/03/11 04:58:39;;;;;;;;;;;;;;;17.96;39.04;100733.94;7256854;19;153300;-54
2023/03/11 05:01:06;;;;;;;;;;;;;;;17.95;38.73;100735.06;7257531;19;153163;-54
2023/03/11 05:03:33;;;;;;;;;;;;;;;17.96;39.08;100727.53;7253934;19;156538;-54
2023/03/11 05:06:00;;;;;;;;;;;;;;;17.93;39.23;100731.75;7260393;19;153185;-54
2023/03/11 05:08:27;;;;;;;;;;;;;;;17.92;38.97;100732.88;7255189;19;154340;-54
2023/03/11 05:10:54;;;;;;;;;;;;;;;17.93;39.10;100737.34;7257674;19;153486;-55
2023/03/11 05:13:21;;;;;;;;;;;;;;;17.91;39.02;100750.78;7256802;19;152611;-55
2023/03/11 05:15:48;;;;;;;;;;;;;;;17.90;38.89;100760.28;7258240;19;153569;-54
2023/03/11 05:18:15;;;;;;;;;;;;;;;17.89;38.85;100757.81;7260092;19;154548;-54
2023/03/11 05:20:42;;;;;;;;;;;;;;;17.88;39.10;100754.16;7257847;19;153134;-54
2023/03/11 05:23:09;;;;;;;;;;;;;;;17.87;38.76;100754.47;7255839;19;153999;-55
2023/03/11 05:25:36;;;;;;;;;;;;;;;17.86;39.28;100758.38;7255005;19;154578;-54
2023/03/11 05:28:03;;;;;;;;;;;;;;;17.84;39.14;100760.66;7256593;19;152349;-54
2023/03/11 05:30:30;;;;;;;;;;;;;;;17.84;39.28;100749.47;7256324;19;154146;-54
2023/03/11 05:32:57;;;;;;;;;;;;;;;17.82;39.22;100738.56;7255140;19;152666;-53
2023/03/11 05:35:24;;;;;;;;;;;;;;;17.80;38.97;100735.25;7255909;19;153677;-59
2023/03/11 05:37:52;;;;;;;;;;;;;;;17.80;39.39;100738.06;7256153;19;154691;-53
2023/03/11 05:40:19;;;;;;;;;;;;;;;17.80;39.10;100746.44;7262123;19;153242;-54
2023/03/11 05:42:47;;;;;;;;;;;;;;;17.80;39.40;100748.41;7255800;19;153594;-54
2023/03/11 05:45:14;;;;;;;;;;;;;;;17.77;39.25;100756.22;7256908;19;153333;-54
2023/03/11 05:47:41;;;;;;;;;;;;;;;17.77;39.05;100752.59;7255218;19;153794;-53
2023/03/11 05:50:09;;;;;;;;;;;;;;;17.75;39.49;100752.91;7254770;19;153763;-54
2023/03/11 05:52:36;;;;;;;;;;;;;;;17.74;39.40;100758.78;7255009;19;153320;-54
2023/03/11 05:55:03;;;;;;;;;;;;;;;17.72;39.01;100763.81;7251426;19;155107;-53
2023/03/11 05:57:30;;;;;;;;;;;;;;;17.73;39.04;100768.28;7253845;19;153573;-54
2023/03/11 05:59:57;;;;;;;;;;;;;;;17.71;39.45;100773.34;7263928;19;153021;-55
2023/03/11 06:02:24;;;;;;;;;;;;;;;17.71;38.92;100767.75;7254337;19;152691;-54
2023/03/11 06:04:52;;;;;;;;;;;;;;;17.68;39.28;100773.91;7254819;19;153712;-54
2023/03/11 06:07:19;;;;;;;;;;;;;;;17.66;39.18;100765.84;7255018;19;153105;-55
2023/03/11 06:09:48;;;;;;;;;;;;;;;17.65;39.08;100766.97;7251929;19;153700;-54
2023/03/11 06:12:15;;;;;;;;;;;;;;;17.62;39.01;100766.72;7254883;19;153417;-54
2023/03/11 06:14:42;;;;;;;;;;;;;;;17.63;39.42;100772.00;7254721;19;153702;-54
2023/03/11 06:17:09;;;;;;;;;;;;;;;17.64;39.06;100761.66;7252456;19;153807;-55
2023/03/11 06:19:36;;;;;;;;;;;;;;;17.61;39.29;100751.94;7254974;19;154806;-54
2023/03/11 06:22:03;;;;;;;;;;;;;;;17.61;39.46;100751.09;7261450;19;153225;-54
2023/03/11 06:24:30;;;;;;;;;;;;;;;17.58;39.34;100758.06;7252687;19;154305;-54
2023/03/11 06:26:57;;;;;;;;;;;;;;;17.59;39.60;100744.94;7254799;19;152605;-54
2023/03/11 06:29:25;;;;;;;;;;;;;;;17.60;39.36;100757.78;7252337;19;154213;-55
2023/03/11 06:31:52;;;;;;;;;;;;;;;17.58;39.41;100765.63;7254173;19;154440;-55
2023/03/11 06:34:19;;;;;;;;;;;;;;;17.56;39.42;100760.31;7252750;19;153473;-54
2023/03/11 06:36:46;;;;;;;;;;;;;;;17.56;39.37;100763.09;7252971;19;154977;-53
2023/03/11 06:39:14;;;;;;;;;;;;;;;17.54;39.17;100762.56;7252120;19;154512;-53
2023/03/11 06:41:41;;;;;;;;;;;;;;;17.55;39.53;100774.56;7254454;19;153501;-53
2023/03/11 06:44:09;;;;;;;;;;;;;;;17.54;39.55;100772.88;7260333;19;153881;-54
2023/03/11 06:46:36;;;;;;;;;;;;;;;17.51;39.69;100768.75;7253731;19;152588;-53
2023/03/11 06:49:03;;;;;;;;;;;;;;;17.50;39.36;100780.19;7251474;19;152731;-53
2023/03/11 06:51:32;;;;;;;;;;;;;;;17.54;39.27;100782.09;7255780;19;153463;-54
2023/03/11 06:53:58;;;;;;;;;;;;;;;17.61;39.34;100793.00;7248947;19;152672;-54
2023/03/11 06:56:25;;;;;;;;;;;;;;;17.73;39.20;100793.44;7253372;19;153229;-54
2023/03/11 06:58:52;;;;;;;;;;;;;;;17.80;38.96;100807.06;7255072;19;153399;-54
2023/03/11 07:01:21;;;;;;;;;;;;;;;17.86;39.20;100811.47;7257785;19;154005;-54
2023/03/11 07:03:49;;;;;;;;;;;;;;;17.93;39.16;100814.78;7252793;19;153828;-54
2023/03/11 07:06:18;;;;;;;;;;;;;;;17.99;38.79;100808.81;7263674;19;153606;-54
2023/03/11 07:08:47;;;;;;;;;;;;;;;18.05;38.95;100823.59;7250105;19;153460;-55
2023/03/11 07:11:16;;;;;;;;;;;;;;;18.09;39.32;100817.13;7254793;19;154513;-54
2023/03/11 07:13:43;;;;;;;;;;;;;;;18.13;39.50;100818.19;7251676;19;156376;-54
2023/03/11 07:16:12;;;;;;;;;;;;;;;18.18;39.72;100822.91;7253745;19;153808;-54
2023/03/11 07:18:40;;;;;;;;;;;;;;;18.22;39.57;100836.00;7254655;19;153154;-55
2023/03/11 07:21:07;;;;;;;;;;;;;;;18.28;39.51;100830.34;7256589;19;154056;-55
2023/03/11 07:23:35;;;;;;;;;;;;;;;18.35;39.52;100825.25;7248848;19;153700;-54
2023/03/11 07:26:03;;;;;;;;;;;;;;;18.40;39.87;100830.75;7254724;19;153526;-54
2023/03/11 07:28:30;;;;;;;;;;;;;;;18.45;39.55;100836.31;7259357;19;153923;-54
2023/03/11 07:30:58;;;;;;;;;;;;;;;18.50;39.93;100851.06;7254875;19;153279;-55
2023/03/11 07:33:25;;;;;;;;;;;;;;;18.56;39.58;100841.53;7252163;19;154541;-54
2023/03/11 07:35:53;;;;;;;;;;;;;;;18.61;39.85;100838.69;7250320;19;155047;-54
2023/03/11 07:38:20;;;;;;;;;;;;;;;18.68;39.73;100838.28;7249953;19;153713;-55
2023/03/11 07:40:56;;;;;;;;;;;;;;;18.74;39.76;100833.47;7258126;19;152794;-54
2023/03/11 07:43:23;;;;;;;;;;;;;;;18.80;39.60;100829.50;7258725;19;153056;-55
2023/03/11 07:45:50;;;;;;;;;;;;;;;18.86;40.06;100815.13;7258958;19;153623;-55
2023/03/11 07:48:17;;;;;;;;;;;;;;;18.91;39.75;100826.25;7257929;19;152628;-54
2023/03/11 07:50:45;;;;;;;;;;;;;;;18.97;39.61;100818.63;7265757;19;154251;-55
2023/03/11 07:53:12;;;;;;;;;;;;;;;19.03;39.35;100828.63;7259227;19;154142;-54
2023/03/11 07:55:39;;;;;;;;;;;;;;;19.08;39.17;100825.72;7256522;19;156168;-54
2023/03/11 07:58:06;;;;;;;;;;;;;;;19.13;39.14;100814.44;7259742;19;154341;-54
2023/03/11 08:00:33;;;;;;;;;;;;;;;19.20;39.00;100819.69;7258031;19;154239;-54
2023/03/11 08:03:00;;;;;;;;;;;;;;;19.25;39.11;100823.25;7257940;19;152510;-54
2023/03/11 08:05:27;;;;;;;;;;;;;;;19.30;38.98;100819.53;7258289;19;153959;-54
2023/03/11 08:07:53;;;;;;;;;;;;;;;19.37;38.80;100834.00;7260518;19;154086;-54
2023/03/11 08:10:20;;;;;;;;;;;;;;;19.42;38.83;100850.72;7263634;19;155764;-55
2023/03/11 08:12:47;;;;;;;;;;;;;;;19.45;38.98;100850.13;7261044;19;153774;-55
2023/03/11 08:15:14;;;;;;;;;;;;;;;19.49;38.56;100842.78;7255234;19;152656;-54
2023/03/11 08:17:41;;;;;;;;;;;;;;;19.52;38.62;100840.25;7258830;19;153057;-54
2023/03/11 08:20:09;;;;;;;;;;;;;;;19.56;38.33;100837.66;7259711;19;155406;-54
2023/03/11 08:22:36;;;;;;;;;;;;;;;19.61;38.19;100840.38;7259175;19;153790;-54
2023/03/11 08:25:21;;;;;;;;;;;;;;;19.66;38.39;100837.50;7259990;19;153258;-54
2023/03/11 08:27:48;;;;;;;;;;;;;;;19.70;37.84;100830.13;7259379;19;153012;-54
2023/03/11 08:30:15;;;;;;;;;;;;;;;19.74;38.03;100839.59;7256583;19;154068;-54
2023/03/11 08:32:42;;;;;;;;;;;;;;;19.77;37.57;100830.56;7265798;19;154840;-54
2023/03/11 08:35:09;;;;;;;;;;;;;;;19.80;37.49;100831.94;7255070;19;153488;-54
2023/03/11 08:37:36;;;;;;;;;;;;;;;19.84;37.77;100833.00;7257762;19;153814;-54
2023/03/11 08:40:04;;;;;;;;;;;;;;;19.87;37.69;100837.97;7256395;19;152361;-54
2023/03/11 08:42:31;;;;;;;;;;;;;;;19.89;37.54;100835.72;7257327;19;152814;-55
2023/03/11 08:44:58;;;;;;;;;;;;;;;19.90;37.08;100826.97;7257375;19;153664;-54
2023/03/11 08:47:25;;;;;;;;;;;;;;;19.90;37.02;100826.97;7257155;19;153543;-54
2023/03/11 08:49:53;;;;;;;;;;;;;;;19.92;36.99;100835.91;7255882;19;152511;-54
2023/03/11 08:52:19;;;;;;;;;;;;;;;19.95;37.13;100826.88;7255870;19;152841;-54
2023/03/11 08:54:46;;;;;;;;;;;;;;;19.93;36.96;100829.19;7261010;19;152985;-54
2023/03/11 08:57:13;;;;;;;;;;;;;;;19.98;36.70;100828.25;7258376;19;153186;-54
2023/03/11 08:59:40;;;;;;;;;;;;;;;19.97;36.87;100827.41;7257237;19;153941;-55
2023/03/11 09:02:08;;;;;;;;;;;;;;;19.98;36.83;100823.47;7254662;19;154127;-53
2023/03/11 09:04:35;;;;;;;;;;;;;;;19.98;36.78;100828.25;7256045;19;152354;-54
2023/03/11 09:07:02;;;;;;;;;;;;;;;19.97;36.53;100827.41;7256843;19;153543;-54
2023/03/11 09:09:30;;;;;;;;;;;;;;;19.96;36.41;100828.56;7254810;19;154473;-53
2023/03/11 09:11:57;;;;;;;;;;;;;;;19.94;36.68;100833.63;7257410;19;152786;-53
2023/03/11 09:14:24;;;;;;;;;;;;;;;19.94;36.87;100824.41;7256376;19;153884;-54
2023/03/11 09:16:51;;;;;;;;;;;;;;;19.95;36.69;100829.69;7263347;19;154605;-54
2023/03/11 09:19:18;;;;;;;;;;;;;;;19.92;37.01;100835.09;7257691;19;154214;-55
2023/03/11 09:21:44;;;;;;;;;;;;;;;19.91;37.04;100836.22;7256078;19;153790;-55
2023/03/11 09:24:11;;;;;;;;;;;;;;;19.90;36.69;100837.34;7255456;19;154233;-54
2023/03/11 09:26:39;;;;;;;;;;;;;;;19.90;36.90;100837.34;7256645;19;153754;-54
2023/03/11 09:29:06;;;;;;;;;;;;;;;19.87;36.88;100844.41;7255304;19;153856;-54
2023/03/11 09:31:33;;;;;;;;;;;;;;;19.88;37.02;100851.69;7257371;19;153353;-54
2023/03/11 09:34:00;;;;;;;;;;;;;;;19.86;36.70;100851.16;7256199;19;154682;-54
2023/03/11 09:36:27;;;;;;;;;;;;;;;19.85;36.80;100852.28;7253023;19;153651;-54
2023/03/11 09:38:54;;;;;;;;;;;;;;;19.83;37.01;100863.00;7262327;19;152910;-53
2023/03/11 09:41:21;;;;;;;;;;;;;;;19.81;37.40;100868.06;7256755;19;154366;-53
2023/03/11 09:43:51;;;;;;;;;;;;;;;19.82;37.41;100868.91;7255230;19;153669;-53
2023/03/11 09:46:20;;;;;;;;;;;;;;;19.82;37.25;100854.88;7255732;19;153735;-53
2023/03/11 09:48:53;;;;;;;;;;;;;;;19.82;36.94;100849.28;7252158;19;152656;-53
2023/03/11 09:51:26;;;;;;;;;;;;;;;19.82;36.83;100841.69;7251749;19;154477;-54
2023/03/11 09:53:57;;;;;;;;;;;;;;;19.81;36.73;100823.19;7251197;19;154182;-54
2023/03/11 09:56:24;;;;;;;;;;;;;;;19.82;37.05;100824.03;7246485;19;154006;-54
2023/03/11 09:59:05;;;;;;;;;;;;;;;19.87;36.64;100826.75;7253602;19;153065;-54
2023/03/11 10:01:32;;;;;;;;;;;;;;;19.89;36.76;100813.28;7263152;19;152809;-54
2023/03/11 10:04:03;;;;;;;;;;;;;;;19.95;36.83;100823.25;7253460;19;153156;-54
2023/03/11 10:06:30;;;;;;;;;;;;;;;19.98;36.55;100825.44;7258171;19;153526;-55
2023/03/11 10:09:01;;;;;;;;;;;;;;;20.02;36.78;100831.28;7254215;19;155011;-53
2023/03/11 10:11:28;;;;;;;;;;;;;;;20.06;36.77;100830.34;7259104;19;152675;-53
2023/03/11 10:13:56;;;;;;;;;;;;;;;20.10;36.33;100834.19;7256431;19;154707;-54
2023/03/11 10:16:29;;;;;;;;;;;;;;;20.13;36.67;100835.53;7254091;19;153549;-53
2023/03/11 10:19:00;;;;;;;;;;;;;;;20.16;36.56;100829.34;7255235;19;153703;-53
2023/03/11 10:21:30;;;;;;;;;;;;;;;20.19;36.26;100829.53;7264645;19;152336;-53
2023/03/11 10:23:57;;;;;;;;;;;;;;;20.22;36.20;100831.72;7254317;19;154555;-53
2023/03/11 10:26:31;;;;;;;;;;;;;;;20.24;36.13;100832.25;7255289;19;151910;-53
2023/03/11 10:28:58;;;;;;;;;;;;;;;20.29;36.51;100828.53;7255533;19;154169;-53
2023/03/11 10:31:28;;;;;;;;;;;;;;;20.32;36.50;100819.50;7254247;19;153051;-53
2023/03/11 10:33:57;;;;;;;;;;;;;;;20.36;36.44;100812.97;7252449;19;153646;-53
2023/03/11 10:36:30;;;;;;;;;;;;;;;20.41;36.21;100812.88;7255763;19;154189;-56
2023/03/11 10:38:57;;;;;;;;;;;;;;;20.48;35.95;100803.22;7252285;19;152720;-53
2023/03/11 10:41:27;;;;;;;;;;;;;;;20.55;36.06;100798.84;7258481;19;153364;-53
2023/03/11 10:43:55;;;;;;;;;;;;;;;20.60;36.00;100804.34;7264202;19;154343;-56
2023/03/11 10:46:24;;;;;;;;;;;;;;;20.65;35.76;100798.63;7258401;19;153489;-53
2023/03/11 10:48:51;;;;;;;;;;;;;;;20.69;35.53;100802.47;7257466;19;153705;-56
2023/03/11 10:51:25;;;;;;;;;;;;;;;20.71;35.70;100797.38;7257870;19;153895;-56
2023/03/11 10:53:56;;;;;;;;;;;;;;;20.75;35.51;100804.03;7255121;19;154681;-54
2023/03/11 10:56:23;;;;;;;;;;;;;;;20.77;36.66;100800.91;7253947;19;154974;-59
2023/03/11 10:58:50;;;;;;;;;;;;;;;20.82;36.23;100807.22;7254597;19;153804;-55
2023/03/11 11:01:17;;;;;;;;;;;;;;;20.86;36.10;100793.38;7256001;19;153295;-55
2023/03/11 11:03:46;;;;;;;;;;;;;;;20.90;36.05;100794.41;7251195;19;155907;-55
2023/03/11 11:06:16;;;;;;;;;;;;;;;20.96;36.03;100793.16;7261143;19;154391;-55
2023/03/11 11:08:44;;;;;;;;;;;;;;;21.01;35.87;100797.84;7248068;19;153883;-55
2023/03/11 11:11:20;;;;;;;;;;;;;;;20.91;35.09;100798.91;7253689;19;154328;-53
2023/03/11 11:13:50;;;;;;;;;;;;;;;20.43;30.33;100790.13;7251453;19;153955;-55
2023/03/11 11:16:20;;;;;;;;;;;;;;;20.67;31.37;100781.47;7255802;19;153627;-55
2023/03/11 11:18:50;;;;;;;;;;;;;;;20.77;32.24;100782.06;7259764;19;153627;-55
2023/03/11 11:21:25;;;;;;;;;;;;;;;20.85;32.65;100784.13;7265469;19;154532;-54
2023/03/11 11:23:55;;;;;;;;;;;;;;;20.94;33.18;100777.78;7258824;19;154529;-54
2023/03/11 11:26:24;;;;;;;;;;;;;;;20.99;33.04;100781.28;7263186;19;153348;-53
2023/03/11 11:28:54;;;;;;;;;;;;;;;21.02;33.54;100768.63;7266517;19;155955;-53
2023/03/11 11:31:23;;;;;;;;;;;;;;;21.06;33.27;100770.47;7262210;19;152834;-54
2023/03/11 11:33:52;;;;;;;;;;;;;;;21.12;33.84;100769.19;7259355;19;154737;-54
2023/03/11 11:36:23;;;;;;;;;;;;;;;21.17;33.33;100765.47;7259548;19;154319;-54
2023/03/11 11:38:52;;;;;;;;;;;;;;;21.21;33.60;100763.72;7257248;19;154166;-54
2023/03/11 11:41:21;;;;;;;;;;;;;;;21.26;33.57;100766.38;7262445;19;153448;-54
2023/03/11 11:43:51;;;;;;;;;;;;;;;21.28;33.87;100767.72;7256529;19;154263;-55
2023/03/11 11:46:21;;;;;;;;;;;;;;;21.34;33.90;100765.63;7257702;19;153144;-54
2023/03/11 11:48:54;;;;;;;;;;;;;;;21.39;33.53;100759.88;7257327;19;154020;-54
2023/03/11 11:51:23;;;;;;;;;;;;;;;21.43;33.57;100762.88;7265939;19;153963;-54
2023/03/11 11:53:56;;;;;;;;;;;;;;;21.47;33.39;100763.91;7259169;19;154795;-53
2023/03/11 11:56:25;;;;;;;;;;;;;;;21.50;33.66;100749.19;7257558;19;154538;-54
2023/03/11 11:58:54;;;;;;;;;;;;;;;21.56;33.30;100750.75;7258745;19;152371;-54
2023/03/11 12:01:24;;;;;;;;;;;;;;;21.59;33.57;100756.53;7260355;19;153911;-54
2023/03/11 12:03:52;;;;;;;;;;;;;;;21.59;32.92;100762.16;7256688;19;154837;-53
2023/03/11 12:06:24;;;;;;;;;;;;;;;21.59;32.83;100758.53;7260932;19;153637;-52
2023/03/11 12:09:00;;;;;;;;;;;;;;;21.61;32.43;100754.25;7258774;19;154177;-53
2023/03/11 12:11:36;;;;;;;;;;;;;;;21.58;32.35;100766.13;7258398;19;153475;-54
2023/03/11 12:14:04;;;;;;;;;;;;;;;21.59;31.99;100767.78;7266777;19;153336;-54
2023/03/11 12:16:34;;;;;;;;;;;;;;;21.59;32.04;100764.97;7257226;19;153326;-55
2023/03/11 12:19:03;;;;;;;;;;;;;;;21.61;31.85;100761.84;7259922;19;154072;-57
2023/03/11 12:21:33;;;;;;;;;;;;;;;21.58;32.84;100756.84;7261749;19;153057;-55
2023/03/11 12:24:01;;;;;;;;;;;;;;;21.67;32.48;100754.94;7258304;19;153607;-56
2023/03/11 12:26:32;;;;;;;;;;;;;;;21.65;32.06;100749.66;7258675;19;153408;-55
2023/03/11 12:29:05;;;;;;;;;;;;;;;21.68;32.29;100748.16;7258456;19;154131;-54
2023/03/11 12:31:37;;;;;;;;;;;;;;;21.73;32.76;100743.25;7259803;19;154019;-55